createdAt,value
2019-01-08T00:01:25.805Z,-3.45
2019-01-08T00:03:55.529Z,-3.45
2019-01-08T00:06:25.164Z,-3.36
2019-01-08T00:08:54.977Z,-3.36
2019-01-08T00:11:24.478Z,-3.29
2019-01-08T00:13:54.070Z,-3.29
2019-01-08T00:16:23.698Z,-3.32
2019-01-08T00:18:53.465Z,-3.29
2019-01-08T00:21:22.969Z,-3.38
2019-01-08T00:23:52.500Z,-3.32
2019-01-08T00:26:21.922Z,-3.32
2019-01-08T00:28:51.326Z,-3.36
2019-01-08T00:31:20.949Z,-3.36
2019-01-08T00:33:50.464Z,-3.43
2019-01-08T00:36:19.874Z,-3.43
2019-01-08T00:38:49.770Z,-3.42
2019-01-08T00:41:19.557Z,-3.47
2019-01-08T00:43:49.174Z,-3.47
2019-01-08T00:46:18.837Z,-3.46
2019-01-08T00:48:48.598Z,-3.53
2019-01-08T00:51:18.018Z,-3.60
2019-01-08T00:53:47.603Z,-3.56
2019-01-08T00:56:17.161Z,-3.56
2019-01-08T00:58:51.556Z,-3.58
2019-01-08T01:01:18.067Z,-3.58
2019-01-08T01:03:47.651Z,-3.65
2019-01-08T01:06:17.390Z,-3.64
2019-01-08T01:08:47.146Z,-3.59
2019-01-08T01:11:16.876Z,-3.62
2019-01-08T01:13:46.287Z,-3.60
2019-01-08T01:16:15.788Z,-3.62
2019-01-08T01:18:45.204Z,-3.62
2019-01-08T01:21:14.708Z,-3.60
2019-01-08T01:23:44.210Z,-3.60
2019-01-08T01:26:13.619Z,-3.71
2019-01-08T01:28:43.022Z,-3.71
2019-01-08T01:31:12.519Z,-3.72
2019-01-08T01:33:42.289Z,-3.70
2019-01-08T01:36:11.936Z,-3.70
2019-01-08T01:38:41.548Z,-3.71
2019-01-08T01:41:11.372Z,-3.78
2019-01-08T01:43:41.115Z,-3.80
2019-01-08T01:46:10.677Z,-3.85
2019-01-08T01:48:40.255Z,-3.83
2019-01-08T01:51:11.045Z,-3.83
2019-01-08T01:53:40.782Z,-3.99
2019-01-08T01:56:10.196Z,-3.99
2019-01-08T01:58:39.837Z,-4.03
2019-01-08T02:01:09.437Z,-4.19
2019-01-08T02:03:38.852Z,-4.19
2019-01-08T02:06:08.365Z,-4.25
2019-01-08T02:08:37.872Z,-4.31
2019-01-08T02:11:07.437Z,-4.32
2019-01-08T02:13:36.942Z,-4.32
2019-01-08T02:16:06.691Z,-4.28
2019-01-08T02:18:36.495Z,-4.27
2019-01-08T02:21:06.188Z,-4.30
2019-01-08T02:23:35.786Z,-4.30
2019-01-08T02:26:05.530Z,-4.30
2019-01-08T02:28:35.034Z,-4.30
2019-01-08T02:31:04.721Z,-4.28
2019-01-08T02:33:34.289Z,-4.28
2019-01-08T02:36:04.058Z,-4.31
2019-01-08T02:38:33.755Z,-4.31
2019-01-08T02:41:03.290Z,-4.28
2019-01-08T02:43:32.804Z,-4.31
2019-01-08T02:46:02.658Z,-4.39
2019-01-08T02:48:32.256Z,-4.36
2019-01-08T02:51:02.080Z,-4.38
2019-01-08T02:53:31.818Z,-4.38
2019-01-08T02:56:01.483Z,-4.37
2019-01-08T02:58:30.881Z,-4.47
2019-01-08T03:01:00.631Z,-4.47
2019-01-08T03:03:30.141Z,-4.43
2019-01-08T03:05:59.565Z,-4.43
2019-01-08T03:08:28.972Z,-4.42
2019-01-08T03:10:58.487Z,-4.42
2019-01-08T03:13:27.993Z,-4.49
2019-01-08T03:15:57.424Z,-4.49
2019-01-08T03:18:26.826Z,-4.64
2019-01-08T03:20:56.327Z,-4.40
2019-01-08T03:23:25.827Z,-4.37
2019-01-08T03:25:55.477Z,-4.37
2019-01-08T03:28:24.873Z,-4.48
2019-01-08T03:30:58.151Z,-4.48
2019-01-08T03:33:27.966Z,-4.80
2019-01-08T03:35:57.367Z,-4.80
2019-01-08T03:38:26.807Z,-4.86
2019-01-08T03:40:56.508Z,-4.95
2019-01-08T03:43:26.097Z,-5.03
2019-01-08T03:45:55.782Z,-5.13
2019-01-08T03:48:25.390Z,-5.21
2019-01-08T03:50:54.884Z,-5.17
2019-01-08T03:53:24.623Z,-5.21
2019-01-08T03:55:54.201Z,-5.28
2019-01-08T03:58:23.928Z,-5.25
2019-01-08T04:00:53.609Z,-5.21
2019-01-08T04:03:23.069Z,-5.18
2019-01-08T04:05:52.596Z,-5.18
2019-01-08T04:08:22.460Z,-5.10
2019-01-08T04:10:52.173Z,-5.13
2019-01-08T04:13:21.733Z,-5.12
2019-01-08T04:15:51.602Z,-5.15
2019-01-08T04:18:21.121Z,-5.08
2019-01-08T04:20:50.690Z,-5.14
2019-01-08T04:23:20.263Z,-5.17
2019-01-08T04:25:50.013Z,-5.07
2019-01-08T04:28:19.769Z,-5.07
2019-01-08T04:30:49.423Z,-5.05
2019-01-08T04:33:18.897Z,-5.07
2019-01-08T04:35:48.656Z,-5.02
2019-01-08T04:38:18.115Z,-4.94
2019-01-08T04:40:47.674Z,-4.94
2019-01-08T04:43:17.515Z,-4.99
2019-01-08T04:45:46.901Z,-5.10
2019-01-08T04:48:16.562Z,-5.13
2019-01-08T04:50:46.053Z,-5.22
2019-01-08T04:53:15.809Z,-5.27
2019-01-08T04:55:45.258Z,-5.36
2019-01-08T04:58:14.887Z,-5.36
2019-01-08T05:00:44.434Z,-5.31
2019-01-08T05:03:14.235Z,-5.34
2019-01-08T05:05:43.709Z,-5.38
2019-01-08T05:08:13.321Z,-5.42
2019-01-08T05:10:43.068Z,-5.43
2019-01-08T05:13:12.855Z,-5.46
2019-01-08T05:15:42.430Z,-5.43
2019-01-08T05:18:12.671Z,-5.42
2019-01-08T05:20:42.081Z,-5.43
2019-01-08T05:23:11.548Z,-5.38
2019-01-08T05:25:41.211Z,-5.44
2019-01-08T05:28:10.728Z,-5.44
2019-01-08T05:30:40.273Z,-5.39
2019-01-08T05:33:09.988Z,-5.39
2019-01-08T05:35:39.493Z,-5.44
2019-01-08T05:38:09.173Z,-5.41
2019-01-08T05:40:38.587Z,-5.38
2019-01-08T05:43:08.026Z,-5.39
2019-01-08T05:45:37.534Z,-5.37
2019-01-08T05:48:07.036Z,-5.33
2019-01-08T05:50:36.462Z,-5.34
2019-01-08T05:53:05.892Z,-5.27
2019-01-08T05:55:35.406Z,-5.27
2019-01-08T05:58:04.836Z,-5.22
2019-01-08T06:00:34.334Z,-5.13
2019-01-08T06:03:04.136Z,-5.12
2019-01-08T06:05:36.416Z,-5.07
2019-01-08T06:08:06.031Z,-5.02
2019-01-08T06:10:35.796Z,-5.03
2019-01-08T06:13:05.794Z,-4.96
2019-01-08T06:15:35.190Z,-4.96
2019-01-08T06:18:04.605Z,-4.89
2019-01-08T06:20:34.098Z,-4.94
2019-01-08T06:23:03.881Z,-5.01
2019-01-08T06:25:33.447Z,-4.91
2019-01-08T06:28:03.087Z,-4.82
2019-01-08T06:30:32.568Z,-4.88
2019-01-08T06:33:04.143Z,-4.93
2019-01-08T06:35:33.745Z,-4.97
2019-01-08T06:38:03.295Z,-5.07
2019-01-08T06:40:32.857Z,-5.15
2019-01-08T06:43:02.269Z,-5.20
2019-01-08T06:45:31.928Z,-5.29
2019-01-08T06:48:01.836Z,-5.19
2019-01-08T06:50:31.455Z,-5.02
2019-01-08T06:53:01.086Z,-5.02
2019-01-08T06:55:30.725Z,-4.97
2019-01-08T06:58:00.295Z,-4.95
2019-01-08T07:00:33.416Z,-4.92
2019-01-08T07:03:01.251Z,-4.90
2019-01-08T07:05:31.010Z,-4.84
2019-01-08T07:08:00.853Z,-4.71
2019-01-08T07:10:30.262Z,-4.71
2019-01-08T07:12:59.998Z,-4.69
2019-01-08T07:15:29.759Z,-4.58
2019-01-08T07:17:59.518Z,-4.30
2019-01-08T07:20:29.014Z,-4.21
2019-01-08T07:22:58.775Z,-4.21
2019-01-08T07:25:28.159Z,-3.82
2019-01-08T07:27:57.559Z,-3.74
2019-01-08T07:30:27.289Z,-3.74
2019-01-08T07:32:56.804Z,-3.72
2019-01-08T07:35:26.427Z,-3.74
2019-01-08T07:37:55.849Z,-3.64
2019-01-08T07:40:25.494Z,-3.55
2019-01-08T07:42:55.004Z,-3.55
2019-01-08T07:45:24.411Z,-3.49
2019-01-08T07:47:54.078Z,-3.49
2019-01-08T07:50:23.889Z,-3.50
2019-01-08T07:52:53.600Z,-3.50
2019-01-08T07:55:23.001Z,-3.47
2019-01-08T07:57:52.505Z,-3.30
2019-01-08T08:00:22.001Z,-3.11
2019-01-08T08:02:51.615Z,-2.93
2019-01-08T08:05:21.388Z,-2.93
2019-01-08T08:07:51.059Z,-2.77
2019-01-08T08:10:20.728Z,-2.78
2019-01-08T08:12:50.357Z,-2.68
2019-01-08T08:15:20.059Z,-2.76
2019-01-08T08:17:50.796Z,-2.69
2019-01-08T08:20:20.451Z,-2.69
2019-01-08T08:22:49.976Z,-2.59
2019-01-08T08:25:19.769Z,-2.34
2019-01-08T08:27:49.469Z,-2.08
2019-01-08T08:30:19.135Z,-1.89
2019-01-08T08:32:48.538Z,-1.53
2019-01-08T08:35:18.206Z,-1.53
2019-01-08T08:37:47.725Z,-1.33
2019-01-08T08:40:17.151Z,-1.09
2019-01-08T08:42:46.740Z,-0.91
2019-01-08T08:45:16.579Z,-0.65
2019-01-08T08:47:46.287Z,-0.45
2019-01-08T08:50:15.876Z,-0.14
2019-01-08T08:52:45.270Z,0.28
2019-01-08T08:55:15.016Z,0.87
2019-01-08T08:57:44.663Z,1.40
2019-01-08T09:00:14.304Z,2.10
2019-01-08T09:02:43.888Z,2.71
2019-01-08T09:05:13.491Z,3.13
2019-01-08T09:07:43.193Z,3.42
2019-01-08T09:10:12.606Z,3.84
2019-01-08T09:12:41.979Z,4.38
2019-01-08T09:15:11.860Z,4.66
2019-01-08T09:17:41.247Z,3.99
2019-01-08T09:20:11.580Z,4.22
2019-01-08T09:22:41.424Z,4.34
2019-01-08T09:25:10.825Z,3.95
2019-01-08T09:27:40.379Z,3.90
2019-01-08T09:30:10.152Z,3.27
2019-01-08T09:32:39.842Z,2.70
2019-01-08T09:35:09.262Z,2.89
2019-01-08T09:37:38.664Z,3.02
2019-01-08T09:40:08.527Z,3.34
2019-01-08T09:42:38.085Z,3.62
2019-01-08T09:45:08.551Z,4.08
2019-01-08T09:47:37.935Z,4.16
2019-01-08T09:50:08.615Z,3.76
2019-01-08T09:52:38.103Z,4.08
2019-01-08T09:55:07.632Z,4.29
2019-01-08T09:57:37.141Z,4.07
2019-01-08T10:00:07.224Z,4.11
2019-01-08T10:02:36.638Z,3.70
2019-01-08T10:05:06.695Z,4.32
2019-01-08T10:07:36.225Z,5.27
2019-01-08T10:10:05.855Z,5.92
2019-01-08T10:12:35.267Z,5.72
2019-01-08T10:15:04.973Z,5.90
2019-01-08T10:17:34.512Z,6.04
2019-01-08T10:20:04.013Z,6.18
2019-01-08T10:22:33.401Z,6.29
2019-01-08T10:25:02.918Z,5.75
2019-01-08T10:27:32.426Z,5.81
2019-01-08T10:30:01.853Z,5.69
2019-01-08T10:32:31.369Z,5.33
2019-01-08T10:35:00.872Z,5.27
2019-01-08T10:37:30.269Z,5.88
2019-01-08T10:40:01.513Z,7.13
2019-01-08T10:42:30.987Z,7.14
2019-01-08T10:45:00.443Z,6.94
2019-01-08T10:47:29.839Z,8.03
2019-01-08T10:49:59.336Z,8.24
2019-01-08T10:52:28.902Z,8.52
2019-01-08T10:54:58.344Z,9.36
2019-01-08T10:57:27.864Z,9.27
2019-01-08T10:59:57.367Z,9.89
2019-01-08T11:02:26.862Z,9.88
2019-01-08T11:04:56.260Z,11.01
2019-01-08T11:07:25.674Z,11.99
2019-01-08T11:09:55.191Z,12.62
2019-01-08T11:12:24.691Z,12.15
2019-01-08T11:14:54.086Z,12.49
2019-01-08T11:17:23.580Z,13.69
2019-01-08T11:19:53.473Z,14.24
2019-01-08T11:22:22.977Z,14.83
2019-01-08T11:24:52.383Z,14.88
2019-01-08T11:27:22.116Z,15.02
2019-01-08T11:29:52.501Z,16.23
2019-01-08T11:32:22.029Z,18.23
2019-01-08T11:34:51.426Z,19.78
2019-01-08T11:37:20.883Z,21.34
2019-01-08T11:39:50.373Z,22.48
2019-01-08T11:42:19.866Z,23.33
2019-01-08T11:44:49.254Z,23.83
2019-01-08T11:47:18.877Z,24.18
2019-01-08T11:49:48.380Z,24.72
2019-01-08T11:52:17.939Z,25.10
2019-01-08T11:54:47.401Z,24.48
2019-01-08T11:57:16.920Z,25.02
2019-01-08T11:59:48.256Z,25.38
2019-01-08T12:02:17.477Z,25.31
2019-01-08T12:04:46.983Z,24.70
2019-01-08T12:07:18.690Z,24.52
2019-01-08T12:09:48.192Z,24.05
2019-01-08T12:12:17.607Z,21.26
2019-01-08T12:14:47.125Z,19.08
2019-01-08T12:17:16.679Z,19.46
2019-01-08T12:19:46.086Z,19.94
2019-01-08T12:22:15.597Z,18.45
2019-01-08T12:24:45.096Z,17.02
2019-01-08T12:27:14.596Z,16.83
2019-01-08T12:29:43.979Z,16.55
2019-01-08T12:32:13.365Z,17.65
2019-01-08T12:34:42.870Z,18.13
2019-01-08T12:37:12.268Z,16.83
2019-01-08T12:39:41.768Z,16.89
2019-01-08T12:42:11.281Z,17.93
2019-01-08T12:44:40.681Z,19.19
2019-01-08T12:47:10.086Z,18.48
2019-01-08T12:49:39.578Z,17.50
2019-01-08T12:52:10.127Z,18.16
2019-01-08T12:54:39.455Z,17.25
2019-01-08T12:57:08.912Z,17.49
2019-01-08T12:59:38.395Z,16.66
2019-01-08T13:02:14.544Z,16.27
2019-01-08T13:04:39.277Z,15.15
2019-01-08T13:07:08.694Z,15.57
2019-01-08T13:09:38.192Z,16.45
2019-01-08T13:12:07.696Z,17.14
2019-01-08T13:14:37.099Z,17.69
2019-01-08T13:17:11.335Z,18.62
2019-01-08T13:19:37.821Z,18.84
2019-01-08T13:22:07.237Z,18.23
2019-01-08T13:24:37.034Z,16.63
2019-01-08T13:27:06.549Z,14.92
2019-01-08T13:29:35.983Z,13.50
2019-01-08T13:32:05.388Z,12.71
2019-01-08T13:34:35.293Z,12.57
2019-01-08T13:37:04.814Z,12.66
2019-01-08T13:39:34.221Z,12.72
2019-01-08T13:42:04.534Z,11.58
2019-01-08T13:44:34.385Z,10.29
2019-01-08T13:47:04.040Z,9.56
2019-01-08T13:49:33.697Z,8.88
2019-01-08T13:52:03.084Z,8.27
2019-01-08T13:54:32.869Z,7.63
2019-01-08T13:57:02.353Z,7.01
2019-01-08T13:59:31.920Z,6.56
2019-01-08T14:02:03.816Z,5.84
2019-01-08T14:04:33.651Z,5.17
2019-01-08T14:07:03.513Z,4.47
2019-01-08T14:09:33.099Z,3.98
2019-01-08T14:12:02.514Z,3.59
2019-01-08T14:14:32.428Z,3.39
2019-01-08T14:17:01.962Z,3.22
2019-01-08T14:19:31.628Z,3.09
2019-01-08T14:22:01.237Z,2.98
2019-01-08T14:24:31.942Z,2.85
2019-01-08T14:27:01.450Z,2.75
2019-01-08T14:29:31.174Z,2.63
2019-01-08T14:32:01.017Z,2.28
2019-01-08T14:34:30.680Z,1.96
2019-01-08T14:37:00.410Z,1.72
2019-01-08T14:39:30.148Z,1.54
2019-01-08T14:42:01.232Z,1.38
2019-01-08T14:44:30.629Z,1.21
2019-01-08T14:47:00.180Z,1.06
2019-01-08T14:49:29.678Z,0.92
2019-01-08T14:51:59.299Z,0.79
2019-01-08T14:54:29.173Z,0.66
2019-01-08T14:56:58.682Z,0.53
2019-01-08T14:59:28.187Z,0.40
2019-01-08T15:01:57.705Z,0.37
2019-01-08T15:04:27.127Z,0.30
2019-01-08T15:06:56.551Z,0.13
2019-01-08T15:09:26.258Z,0.13
2019-01-08T15:11:56.839Z,0.15
2019-01-08T15:14:26.314Z,0.11
2019-01-08T15:16:56.088Z,0.02
2019-01-08T15:19:25.690Z,0.00
2019-01-08T15:21:55.384Z,0.03
2019-01-08T15:24:24.923Z,-0.09
2019-01-08T15:26:55.106Z,-0.10
2019-01-08T15:29:24.722Z,-0.21
2019-01-08T15:31:54.304Z,-0.24
2019-01-08T15:34:24.116Z,-0.22
2019-01-08T15:36:53.787Z,-0.22
2019-01-08T15:39:23.913Z,-0.26
2019-01-08T15:41:53.566Z,-0.31
2019-01-08T15:44:23.596Z,-0.43
2019-01-08T15:46:53.457Z,-0.52
2019-01-08T15:49:23.000Z,-0.57
2019-01-08T15:51:52.709Z,-0.67
2019-01-08T15:54:22.367Z,-0.67
2019-01-08T15:56:51.914Z,-0.73
2019-01-08T15:59:21.418Z,-0.72
2019-01-08T16:01:51.148Z,-0.71
2019-01-08T16:04:20.779Z,-0.71
2019-01-08T16:06:50.548Z,-0.71
2019-01-08T16:09:20.049Z,-0.75
2019-01-08T16:11:49.568Z,-0.84
2019-01-08T16:14:18.978Z,-0.85
2019-01-08T16:16:48.687Z,-0.85
2019-01-08T16:19:18.449Z,-0.85
2019-01-08T16:21:48.743Z,-0.85
2019-01-08T16:24:18.529Z,-0.79
2019-01-08T16:26:48.710Z,-0.83
2019-01-08T16:29:18.240Z,-0.93
2019-01-08T16:31:48.019Z,-1.01
2019-01-08T16:34:17.652Z,-1.10
2019-01-08T16:36:48.265Z,-1.16
2019-01-08T16:39:17.832Z,-1.26
2019-01-08T16:41:47.347Z,-1.34
2019-01-08T16:44:17.188Z,-1.40
2019-01-08T16:46:46.979Z,-1.30
2019-01-08T16:49:17.456Z,-1.30
2019-01-08T16:51:49.322Z,-1.31
2019-01-08T16:54:20.511Z,-1.28
2019-01-08T16:56:51.781Z,-1.39
2019-01-08T16:59:25.508Z,-1.50
2019-01-08T17:01:54.948Z,-1.62
2019-01-08T17:04:24.504Z,-1.68
2019-01-08T17:06:54.093Z,-1.88
2019-01-08T17:09:23.784Z,-2.10
2019-01-08T17:11:53.547Z,-2.21
2019-01-08T17:14:23.095Z,-2.46
2019-01-08T17:16:53.810Z,-2.31
2019-01-08T17:19:23.632Z,-2.37
2019-01-08T17:21:53.249Z,-2.08
2019-01-08T17:24:22.814Z,-2.13
2019-01-08T17:26:52.426Z,-2.25
2019-01-08T17:29:22.206Z,-2.35
2019-01-08T17:31:52.352Z,-2.39
2019-01-08T17:34:22.055Z,-2.50
2019-01-08T17:36:51.896Z,-2.48
2019-01-08T17:39:21.786Z,-2.51
2019-01-08T17:41:51.506Z,-2.56
2019-01-08T17:44:21.018Z,-2.56
2019-01-08T17:46:50.453Z,-2.52
2019-01-08T17:49:22.269Z,-2.55
2019-01-08T17:51:52.402Z,-2.67
2019-01-08T17:54:22.396Z,-2.64
2019-01-08T17:56:52.502Z,-2.72
2019-01-08T17:59:25.055Z,-2.70
2019-01-08T18:01:59.788Z,-2.81
2019-01-08T18:04:29.301Z,-2.81
2019-01-08T18:06:59.039Z,-2.85
2019-01-08T18:09:31.027Z,-2.77
2019-01-08T18:12:00.440Z,-2.74
2019-01-08T18:14:30.311Z,-2.73
2019-01-08T18:17:00.812Z,-2.67
2019-01-08T18:19:30.454Z,-2.61
2019-01-08T18:21:59.887Z,-2.58
2019-01-08T18:24:29.825Z,-2.51
2019-01-08T18:26:59.337Z,-2.55
2019-01-08T18:29:28.994Z,-2.55
2019-01-08T18:31:58.755Z,-2.53
2019-01-08T18:34:30.728Z,-2.49
2019-01-08T18:37:00.145Z,-2.51
2019-01-08T18:39:29.960Z,-2.59
2019-01-08T18:41:59.823Z,-2.65
2019-01-08T18:44:29.475Z,-2.63
2019-01-08T18:46:59.072Z,-2.63
2019-01-08T18:49:28.803Z,-2.65
2019-01-08T18:51:58.660Z,-2.65
2019-01-08T18:54:29.206Z,-2.58
2019-01-08T18:56:58.658Z,-2.58
2019-01-08T18:59:30.432Z,-2.64
2019-01-08T19:02:00.322Z,-2.56
2019-01-08T19:04:29.732Z,-2.58
2019-01-08T19:06:59.313Z,-2.59
2019-01-08T19:09:40.225Z,-2.61
2019-01-08T19:12:12.285Z,-2.61
2019-01-08T19:14:42.643Z,-2.66
2019-01-08T19:17:12.389Z,-2.72
2019-01-08T19:19:42.211Z,-2.78
2019-01-08T19:22:12.180Z,-2.78
2019-01-08T19:24:42.420Z,-2.69
2019-01-08T19:27:12.131Z,-2.65
2019-01-08T19:29:41.914Z,-2.67
2019-01-08T19:32:13.765Z,-2.54
2019-01-08T19:34:43.294Z,-2.67
2019-01-08T19:37:12.993Z,-2.62
2019-01-08T19:39:42.843Z,-2.63
2019-01-08T19:42:13.226Z,-2.61
2019-01-08T19:44:42.728Z,-2.71
2019-01-08T19:47:12.470Z,-2.91
2019-01-08T19:49:44.132Z,-3.17
2019-01-08T19:52:13.903Z,-3.17
2019-01-08T19:54:44.097Z,-3.38
2019-01-08T19:57:13.991Z,-3.59
2019-01-08T19:59:43.684Z,-3.59
2019-01-08T20:02:13.303Z,-3.76
2019-01-08T20:04:42.835Z,-3.76
2019-01-08T20:07:12.851Z,-3.89
2019-01-08T20:09:42.556Z,-3.89
2019-01-08T20:12:12.109Z,-3.91
2019-01-08T20:14:41.772Z,-4.28
2019-01-08T20:17:11.573Z,-4.28
2019-01-08T20:19:40.989Z,-4.37
2019-01-08T20:22:10.770Z,-4.41
2019-01-08T20:24:40.480Z,-4.42
2019-01-08T20:27:10.242Z,-4.42
2019-01-08T20:29:39.641Z,-4.46
2019-01-08T20:32:09.474Z,-4.26
2019-01-08T20:34:39.252Z,-4.24
2019-01-08T20:37:09.000Z,-4.34
2019-01-08T20:39:38.510Z,-4.65
2019-01-08T20:42:09.560Z,-4.49
2019-01-08T20:44:39.264Z,-4.49
2019-01-08T20:47:08.994Z,-4.23
2019-01-08T20:49:38.834Z,-4.23
2019-01-08T20:52:08.609Z,-4.21
2019-01-08T20:54:38.213Z,-4.29
2019-01-08T20:57:09.158Z,-4.29
2019-01-08T20:59:39.240Z,-4.22
2019-01-08T21:02:09.140Z,-4.02
2019-01-08T21:04:38.683Z,-3.97
2019-01-08T21:07:08.267Z,-3.97
2019-01-08T21:09:37.783Z,-3.87
2019-01-08T21:12:07.295Z,-3.82
2019-01-08T21:14:36.876Z,-3.76
2019-01-08T21:17:06.621Z,-3.65
2019-01-08T21:19:36.202Z,-3.57
2019-01-08T21:22:05.610Z,-3.64
2019-01-08T21:24:35.389Z,-3.52
2019-01-08T21:27:07.523Z,-3.28
2019-01-08T21:29:36.992Z,-3.24
2019-01-08T21:32:06.589Z,-3.24
2019-01-08T21:34:43.991Z,-3.25
2019-01-08T21:37:07.607Z,-3.27
2019-01-08T21:39:37.014Z,-3.21
2019-01-08T21:42:06.660Z,-3.38
2019-01-08T21:44:36.434Z,-3.38
2019-01-08T21:47:06.220Z,-3.19
2019-01-08T21:49:35.890Z,-3.27
2019-01-08T21:52:05.493Z,-3.61
2019-01-08T21:54:35.231Z,-3.65
2019-01-08T21:57:05.059Z,-3.79
2019-01-08T21:59:34.886Z,-3.79
2019-01-08T22:02:04.660Z,-4.16
2019-01-08T22:04:34.564Z,-4.16
2019-01-08T22:07:04.273Z,-4.35
2019-01-08T22:09:33.913Z,-3.91
2019-01-08T22:12:03.756Z,-3.91
2019-01-08T22:14:33.494Z,-4.00
2019-01-08T22:17:03.111Z,-4.07
2019-01-08T22:19:32.614Z,-4.10
2019-01-08T22:22:02.159Z,-4.22
2019-01-08T22:24:31.595Z,-4.22
2019-01-08T22:27:01.289Z,-4.39
2019-01-08T22:29:30.795Z,-4.48
2019-01-08T22:32:00.559Z,-4.29
2019-01-08T22:34:30.199Z,-4.29
2019-01-08T22:36:59.926Z,-4.20
2019-01-08T22:39:29.562Z,-4.27
2019-01-08T22:41:59.179Z,-4.27
2019-01-08T22:44:29.091Z,-4.35
2019-01-08T22:46:58.760Z,-4.35
2019-01-08T22:49:28.508Z,-4.20
2019-01-08T22:51:58.312Z,-4.20
2019-01-08T22:54:28.033Z,-4.13
2019-01-08T22:56:57.827Z,-4.10
2019-01-08T22:59:27.528Z,-4.17
2019-01-08T23:01:57.156Z,-4.17
2019-01-08T23:04:26.826Z,-4.11
2019-01-08T23:06:56.511Z,-4.11
2019-01-08T23:09:26.190Z,-4.13
2019-01-08T23:11:55.598Z,-4.03
2019-01-08T23:14:25.422Z,-3.92
2019-01-08T23:16:54.830Z,-4.16
2019-01-08T23:19:24.771Z,-4.16
2019-01-08T23:21:54.665Z,-4.54
2019-01-08T23:24:24.113Z,-4.54
2019-01-08T23:26:53.913Z,-4.65
2019-01-08T23:29:23.806Z,-4.55
2019-01-08T23:31:53.678Z,-4.23
2019-01-08T23:34:23.115Z,-4.29
2019-01-08T23:36:52.516Z,-4.34
2019-01-08T23:39:22.825Z,-4.50
2019-01-08T23:41:52.732Z,-4.38
2019-01-08T23:44:22.124Z,-4.53
2019-01-08T23:46:51.834Z,-4.36
2019-01-08T23:49:21.342Z,-4.36
2019-01-08T23:51:56.223Z,-4.29
2019-01-08T23:54:28.083Z,-4.35
2019-01-08T23:56:58.892Z,-4.48
2019-01-08T23:59:28.306Z,-4.63
